aviador You're here:

SLRB Decoded Metar

ROBORE in BOLIVIA
Report Time2018-01-21 18:00:00
UTC Time2018-01-21 18:20:33
Flight Rules vfr VFR
Wind360° at 18 kt
W.Decomp.*RWY 36: 17.6 kt HW 3.7 kt RCW
Visibility9999 m
Phenomena:N/A
Clouds:Few 020 Hf
Scattered 200 Hf
Expected CloudBase > 4,000 ft AGL from Temp-Dew spread
CeilingNone
Temp33°C (ISA +20)
Dew Point23°C (56% RH)
Heat Index38.1°C
AAT31.8°C
QNH1012 hPa
Density Alt3,596 ft
Elevation932 ft
Report Wrong Elevation
Raw Report
SLRB 211800Z 36018KT 9999 FEW020 SCT200 33/23 Q1012=

Extra information for SLRB:More info

Metar Taf Metar & Taf Last 4 Metars F.Rules Stats Wind Profile Meteogram Temp Stats Airport Information Weather charts Add Link Nearby VenuesMetar ALERT Operation Metar Decoded Social comments